Higdonville, North Carolina
Current Conditions -  °F | °C
As of 3:35 PM on Thursday 23 Oct 2014 (Local Time) from KRHP Reporting Station
Clear Clear  
Wind Chill: 65°   Ceiling: Unl
Heat Index: 65°   Visibility: 10mi
Dew Point: 42°   Wind: 6mph
Humidity: 43%   Direction: 250°WSW
Pressure: 30.04"   Gusts: NA
Location:  35.1737°N, 83.4215°W
Report Text: KRHP 231935Z AUTO 25005KT 10SM CLR 19/06 A3004 RMK AO2 T01860057
Loading
Personal Weather Stations






























Interactive Weather Map
Tropical Storm Tracking
New forecast layout! Learn more

10-Day Weather Forecast

Advertisements
Track Severe Weather on mobile